FlightSource - Aviation Photo Database

World Wide Airport Lookup


Search by ICAO
Or
Search by City

FlightSource.ca - Aviation Photo Database - Lanvéoc-Poulmic Air Base Information
Airport Identification
Name: Lanvéoc-Poulmic Air Base
ICAO: LFRL
IATA:
Airport Location
City: Lanvéoc/Poulmic
Region: E
Country: France
Continent: Europe
Latitude: 48.2817
Longitude: -4.44502
Airport Information
Type: Medium Airport
Elevation: 287 Feet ASL
Flight Status: LFRL
More Info: LFRL
Airport Weather    
Metar: LFRL 221530Z AUTO 28010KT 9999 BKN027 12/09 Q1022 NOSIG
TAF:


Advertisement